Time;durP1;ratioP1;P1;durP2;ratioP2;P2;SDS_P1;SDS_P2;PMS_P1;PMS_P2;Temp;Humidity;BMP_temperature;BMP_pressure;BME280_temperature;BME280_humidity;BME280_pressure;Samples;Min_cycle;Max_cycle;Signal;HPM_P1;HPM_P2
2021/06/11 00:00:48;;;;;;;;;;;;;;;;;;2097473;28;45430;-66
2021/06/11 00:01:49;;;;;;;;;;;;;;;;;;2080477;28;45470;-67
2021/06/11 00:02:51;;;;;;;;;;;;;;;;;;2072551;28;46731;-67
2021/06/11 00:03:52;;;;;;;;;;;;;;;;;;2089030;28;45720;-66
2021/06/11 00:04:54;;;;;;;;;;;;;;;;;;2088942;28;45330;-66
2021/06/11 00:05:55;;;;;;;;;;;;;;;;;;2080554;28;44082;-67
2021/06/11 00:06:57;;;;;;;;;;;;;;;;;;2081044;28;45643;-66
2021/06/11 00:07:58;;;;;;;;;;;;;;;;;;2072617;28;44263;-66
2021/06/11 00:09:00;;;;;;;;;;;;;;;;;;2088692;28;45435;-66
2021/06/11 00:10:05;;;;;;;;;;;;;;;;;;2088758;28;46801;-67
2021/06/11 00:11:07;;;;;;;;;;;;;;;;;;2073569;28;41662;-66
2021/06/11 00:12:09;;;;;;;;;;;;;;;;;;2088538;28;46549;-67
2021/06/11 00:13:10;;;;;;;;;;;;;;;;;;2088821;28;45416;-66
2021/06/11 00:14:12;;;;;;;;;;;;;;;;;;2089056;28;45354;-66
2021/06/11 00:15:13;;;;;;;;;;;;;;;;;;2097111;28;44198;-66
2021/06/11 00:16:14;;;;;;;;;;;;;;;;;;2080189;28;46645;-66
2021/06/11 00:17:16;;;;;;;;;;;;;;;;;;2080825;28;45519;-66
2021/06/11 00:18:17;;;;;;;;;;;;;;;;;;2080371;28;45305;-66
2021/06/11 00:19:19;;;;;;;;;;;;;;;;;;2089092;28;45499;-66
2021/06/11 00:20:21;;;;;;;;;;;;;;;;;;2097020;28;46828;-66
2021/06/11 00:21:22;;;;;;;;;;;;;;;;;;2080959;28;46894;-66
2021/06/11 00:22:23;;;;;;;;;;;;;;;;;;2080550;28;44437;-66
2021/06/11 00:23:25;;;;;;;;;;;;;;;;;;2096858;28;44102;-66
2021/06/11 00:24:27;;;;;;;;;;;;;;;;;;2096785;28;47318;-67
2021/06/11 00:25:28;;;;;;;;;;;;;;;;;;2088736;28;45995;-67
2021/06/11 00:26:29;;;;;;;;;;;;;;;;;;2097017;28;46999;-66
2021/06/11 00:27:31;;;;;;;;;;;;;;;;;;2088831;28;45844;-67
2021/06/11 00:28:32;;;;;;;;;;;;;;;;;;2080626;28;45686;-66
2021/06/11 00:29:34;;;;;;;;;;;;;;;;;;2097166;28;45926;-66
2021/06/11 00:30:36;;;;;;;;;;;;;;;;;;2088627;28;45919;-66
2021/06/11 00:31:39;;;;;;;;;;;;;;;;;;2088634;28;44769;-67
2021/06/11 00:32:40;;;;;;;;;;;;;;;;;;2096117;28;45236;-66
2021/06/11 00:33:42;;;;;;;;;;;;;;;;;;2080563;28;46818;-67
2021/06/11 00:34:43;;;;;;;;;;;;;;;;;;2088758;28;45972;-67
2021/06/11 00:35:45;;;;;;;;;;;;;;;;;;2087750;28;47592;-67
2021/06/11 00:36:46;;;;;;;;;;;;;;;;;;2080534;28;47020;-67
2021/06/11 00:37:47;;;;;;;;;;;;;;;;;;2097173;28;45779;-67
2021/06/11 00:38:49;;;;;;;;;;;;;;;;;;2096419;28;44621;-68
2021/06/11 00:39:51;;;;;;;;;;;;;;;;;;2081147;28;47212;-67
2021/06/11 00:40:52;;;;;;;;;;;;;;;;;;2097117;28;46904;-68
2021/06/11 00:41:54;;;;;;;;;;;;;;;;;;2096831;28;47053;-68
2021/06/11 00:42:55;;;;;;;;;;;;;;;;;;2097019;28;47104;-68
2021/06/11 00:43:57;;;;;;;;;;;;;;;;;;2088735;28;47211;-68
2021/06/11 00:45:00;;;;;;;;;;;;;;;;;;2089194;28;42880;-67
2021/06/11 00:46:02;;;;;;;;;;;;;;;;;;2087874;28;45464;-67
2021/06/11 00:47:03;;;;;;;;;;;;;;;;;;2072596;28;45393;-67
2021/06/11 00:48:05;;;;;;;;;;;;;;;;;;2080373;28;44601;-67
2021/06/11 00:49:06;;;;;;;;;;;;;;;;;;2081266;28;43835;-68
2021/06/11 00:50:10;;;;;;;;;;;;;;;;;;2080985;28;44326;-67
2021/06/11 00:51:11;;;;;;;;;;;;;;;;;;2080790;28;44221;-68
2021/06/11 00:52:13;;;;;;;;;;;;;;;;;;2080163;28;45483;-68
2021/06/11 00:53:16;;;;;;;;;;;;;;;;;;2096954;28;42344;-68
2021/06/11 00:54:18;;;;;;;;;;;;;;;;;;2087908;28;46349;-67
2021/06/11 00:55:20;;;;;;;;;;;;;;;;;;2072870;28;44309;-68
2021/06/11 00:56:23;;;;;;;;;;;;;;;;;;2080623;28;45513;-68
2021/06/11 00:57:24;;;;;;;;;;;;;;;;;;2080593;28;43061;-67
2021/06/11 00:58:26;;;;;;;;;;;;;;;;;;2088691;28;45164;-68
2021/06/11 00:59:27;;;;;;;;;;;;;;;;;;2097029;28;45767;-68
2021/06/11 01:00:29;;;;;;;;;;;;;;;;;;2080449;28;44338;-68
2021/06/11 01:01:30;;;;;;;;;;;;;;;;;;2072483;28;45396;-68
2021/06/11 01:02:32;;;;;;;;;;;;;;;;;;2088633;28;42929;-68
2021/06/11 01:03:33;;;;;;;;;;;;;;;;;;2088602;28;44377;-68
2021/06/11 01:04:35;;;;;;;;;;;;;;;;;;2072151;28;46976;-69
2021/06/11 01:05:37;;;;;;;;;;;;;;;;;;2072857;28;45176;-68
2021/06/11 01:06:40;;;;;;;;;;;;;;;;;;2072598;28;43513;-68
2021/06/11 01:07:42;;;;;;;;;;;;;;;;;;2080360;28;45367;-68
2021/06/11 01:08:44;;;;;;;;;;;;;;;;;;2080136;28;45348;-68
2021/06/11 01:09:46;;;;;;;;;;;;;;;;;;2080578;28;46386;-68
2021/06/11 01:10:48;;;;;;;;;;;;;;;;;;2097000;28;45434;-68
2021/06/11 01:11:50;;;;;;;;;;;;;;;;;;2096780;28;46027;-68
2021/06/11 01:12:52;;;;;;;;;;;;;;;;;;2080868;28;45525;-68
2021/06/11 01:13:55;;;;;;;;;;;;;;;;;;2081124;28;45565;-68
2021/06/11 01:14:56;;;;;;;;;;;;;;;;;;2080334;28;44346;-68
2021/06/11 01:15:58;;;;;;;;;;;;;;;;;;2080168;28;47747;-67
2021/06/11 01:17:00;;;;;;;;;;;;;;;;;;2080947;28;46377;-68
2021/06/11 01:18:02;;;;;;;;;;;;;;;;;;2097033;28;46498;-68
2021/06/11 01:19:05;;;;;;;;;;;;;;;;;;2088144;28;46658;-67
2021/06/11 01:20:12;;;;;;;;;;;;;;;;;;2080481;28;45444;-67
2021/06/11 01:21:14;;;;;;;;;;;;;;;;;;2096791;28;45467;-68
2021/06/11 01:22:18;;;;;;;;;;;;;;;;;;2088414;28;46549;-68
2021/06/11 01:23:25;;;;;;;;;;;;;;;;;;2088765;28;45348;-68
2021/06/11 01:24:30;;;;;;;;;;;;;;;;;;2087897;28;45337;-68
2021/06/11 01:25:34;;;;;;;;;;;;;;;;;;2080196;28;45251;-68
2021/06/11 01:26:39;;;;;;;;;;;;;;;;;;2089172;28;45506;-68
2021/06/11 01:27:42;;;;;;;;;;;;;;;;;;2096222;28;45287;-68
2021/06/11 01:28:44;;;;;;;;;;;;;;;;;;2080380;28;45758;-68
2021/06/11 01:29:52;;;;;;;;;;;;;;;;;;2080314;28;45934;-68
2021/06/11 01:30:55;;;;;;;;;;;;;;;;;;2080713;28;46102;-68
2021/06/11 01:31:59;;;;;;;;;;;;;;;;;;2080287;28;47859;-67
2021/06/11 01:33:02;;;;;;;;;;;;;;;;;;2088955;28;46111;-67
2021/06/11 01:34:09;;;;;;;;;;;;;;;;;;2088288;28;46296;-67
2021/06/11 01:35:12;;;;;;;;;;;;;;;;;;2080718;28;45410;-67
2021/06/11 01:36:15;;;;;;;;;;;;;;;;;;2080276;28;46217;-67
2021/06/11 01:37:22;;;;;;;;;;;;;;;;;;2072049;28;45929;-67
2021/06/11 01:38:25;;;;;;;;;;;;;;;;;;2089419;28;44991;-67
2021/06/11 01:39:27;;;;;;;;;;;;;;;;;;2096125;28;45411;-67
2021/06/11 01:40:30;;;;;;;;;;;;;;;;;;2096827;28;47014;-67
2021/06/11 01:41:33;;;;;;;;;;;;;;;;;;2096482;28;47324;-67
2021/06/11 01:42:36;;;;;;;;;;;;;;;;;;2088152;28;47142;-67
2021/06/11 01:43:38;;;;;;;;;;;;;;;;;;2096556;28;47319;-66
2021/06/11 01:44:40;;;;;;;;;;;;;;;;;;2088402;28;45967;-67
2021/06/11 01:45:42;;;;;;;;;;;;;;;;;;2079824;28;45887;-67
2021/06/11 01:46:45;;;;;;;;;;;;;;;;;;2072363;28;46883;-67
2021/06/11 01:47:48;;;;;;;;;;;;;;;;;;2081695;28;46153;-67
2021/06/11 01:48:50;;;;;;;;;;;;;;;;;;2081648;28;46950;-67
2021/06/11 01:49:52;;;;;;;;;;;;;;;;;;2081504;28;47081;-67
2021/06/11 01:50:54;;;;;;;;;;;;;;;;;;2098865;28;43197;-68
2021/06/11 01:51:56;;;;;;;;;;;;;;;;;;2097404;28;44252;-68
2021/06/11 01:52:59;;;;;;;;;;;;;;;;;;2097831;28;42988;-68
2021/06/11 01:54:02;;;;;;;;;;;;;;;;;;2097815;28;43142;-67
2021/06/11 01:55:04;;;;;;;;;;;;;;;;;;2098268;28;44511;-67
2021/06/11 01:56:06;;;;;;;;;;;;;;;;;;2097739;28;41779;-68
2021/06/11 01:57:08;;;;;;;;;;;;;;;;;;2081640;28;44024;-67
2021/06/11 01:58:10;;;;;;;;;;;;;;;;;;2081595;28;44589;-67
2021/06/11 01:59:11;;;;;;;;;;;;;;;;;;2081998;28;45212;-67
2021/06/11 02:00:13;;;;;;;;;;;;;;;;;;2081741;28;44143;-68
2021/06/11 02:01:19;;;;;;;;;;;;;;;;;;2098351;28;45561;-68
2021/06/11 02:02:20;;;;;;;;;;;;;;;;;;2096521;28;45445;-67
2021/06/11 02:03:23;;;;;;;;;;;;;;;;;;2098200;28;43049;-68
2021/06/11 02:04:24;;;;;;;;;;;;;;;;;;2089516;28;44403;-67
2021/06/11 02:05:26;;;;;;;;;;;;;;;;;;2081684;28;44279;-67
2021/06/11 02:06:28;;;;;;;;;;;;;;;;;;2089884;28;42811;-67
2021/06/11 02:07:30;;;;;;;;;;;;;;;;;;2097328;28;45166;-67
2021/06/11 02:08:32;;;;;;;;;;;;;;;;;;2081656;28;43170;-68
2021/06/11 02:09:33;;;;;;;;;;;;;;;;;;2098234;28;44391;-72
2021/06/11 02:10:35;;;;;;;;;;;;;;;;;;2097879;28;44253;-68
2021/06/11 02:11:36;;;;;;;;;;;;;;;;;;2081571;28;42918;-68
2021/06/11 02:12:38;;;;;;;;;;;;;;;;;;2073775;28;42982;-67
2021/06/11 02:13:43;;;;;;;;;;;;;;;;;;2081646;28;45432;-67
2021/06/11 02:14:45;;;;;;;;;;;;;;;;;;2097738;28;45422;-67
2021/06/11 02:15:47;;;;;;;;;;;;;;;;;;2097982;28;42761;-67
2021/06/11 02:16:49;;;;;;;;;;;;;;;;;;2081503;28;45559;-67
2021/06/11 02:17:51;;;;;;;;;;;;;;;;;;2073469;28;44185;-67
2021/06/11 02:18:54;;;;;;;;;;;;;;;;;;2081453;28;43831;-67
2021/06/11 02:19:56;;;;;;;;;;;;;;;;;;2081569;28;46782;-67
2021/06/11 02:20:57;;;;;;;;;;;;;;;;;;2073547;28;44849;-67
2021/06/11 02:21:59;;;;;;;;;;;;;;;;;;2089168;28;46651;-67
2021/06/11 02:23:03;;;;;;;;;;;;;;;;;;2081521;28;43434;-67
2021/06/11 02:24:05;;;;;;;;;;;;;;;;;;2065698;28;45284;-67
2021/06/11 02:25:07;;;;;;;;;;;;;;;;;;2065441;28;45471;-68
2021/06/11 02:26:10;;;;;;;;;;;;;;;;;;2065383;28;45431;-68
2021/06/11 02:27:12;;;;;;;;;;;;;;;;;;2073206;28;42822;-68
2021/06/11 02:28:17;;;;;;;;;;;;;;;;;;2073840;28;46462;-68
2021/06/11 02:29:18;;;;;;;;;;;;;;;;;;2072880;28;44325;-68
2021/06/11 02:30:20;;;;;;;;;;;;;;;;;;2081948;28;45493;-68
2021/06/11 02:31:22;;;;;;;;;;;;;;;;;;2081276;28;46378;-67
2021/06/11 02:32:23;;;;;;;;;;;;;;;;;;2081771;28;43934;-68
2021/06/11 02:33:26;;;;;;;;;;;;;;;;;;2081088;28;46954;-68
2021/06/11 02:34:27;;;;;;;;;;;;;;;;;;2082339;28;43164;-66
2021/06/11 02:35:29;;;;;;;;;;;;;;;;;;2081321;28;46966;-68
2021/06/11 02:36:33;;;;;;;;;;;;;;;;;;2073066;28;47066;-67
2021/06/11 02:37:35;;;;;;;;;;;;;;;;;;2089711;28;44778;-67
2021/06/11 02:38:36;;;;;;;;;;;;;;;;;;2080857;28;47024;-67
2021/06/11 02:39:38;;;;;;;;;;;;;;;;;;2073531;28;43891;-67
2021/06/11 02:40:40;;;;;;;;;;;;;;;;;;2089491;28;47510;-67
2021/06/11 02:41:44;;;;;;;;;;;;;;;;;;2089383;28;46896;-67
2021/06/11 02:42:52;;;;;;;;;;;;;;;;;;2073075;28;47173;-67
2021/06/11 02:43:54;;;;;;;;;;;;;;;;;;2073180;28;43855;-67
2021/06/11 02:44:59;;;;;;;;;;;;;;;;;;2073083;28;44998;-67
2021/06/11 02:46:06;;;;;;;;;;;;;;;;;;2081832;28;45787;-67
2021/06/11 02:47:21;;;;;;;;;;;;;;;;;;2087798;28;46045;-67
2021/06/11 02:48:25;;;;;;;;;;;;;;;;;;2072810;28;44452;-67
2021/06/11 02:49:31;;;;;;;;;;;;;;;;;;2081750;28;45938;-67
2021/06/11 02:50:35;;;;;;;;;;;;;;;;;;2088810;28;44198;-67
2021/06/11 02:51:38;;;;;;;;;;;;;;;;;;2076516;28;44467;-67
2021/06/11 02:53:06;;;;;;;;;;;;;;;;;;2080758;28;44601;-67
2021/06/11 02:54:15;;;;;;;;;;;;;;;;;;2081229;28;45757;-67
2021/06/11 02:55:17;;;;;;;;;;;;;;;;;;2081952;28;45435;-68
2021/06/11 02:56:20;;;;;;;;;;;;;;;;;;2081437;28;45918;-68
2021/06/11 02:57:24;;;;;;;;;;;;;;;;;;2073417;28;44600;-68
2021/06/11 02:58:31;;;;;;;;;;;;;;;;;;2089409;28;44515;-67
2021/06/11 02:59:35;;;;;;;;;;;;;;;;;;2095830;28;44300;-67
2021/06/11 03:00:37;;;;;;;;;;;;;;;;;;2097709;28;43907;-68
2021/06/11 03:01:43;;;;;;;;;;;;;;;;;;2097714;28;45296;-68
2021/06/11 03:02:49;;;;;;;;;;;;;;;;;;2081122;28;44117;-68
2021/06/11 03:03:52;;;;;;;;;;;;;;;;;;2073845;28;45779;-67
2021/06/11 03:04:54;;;;;;;;;;;;;;;;;;2081090;28;44174;-68
2021/06/11 03:05:57;;;;;;;;;;;;;;;;;;2081870;28;44202;-68
2021/06/11 03:06:59;;;;;;;;;;;;;;;;;;2081526;28;44220;-67
2021/06/11 03:08:03;;;;;;;;;;;;;;;;;;2081871;28;42604;-67
2021/06/11 03:09:10;;;;;;;;;;;;;;;;;;2081681;28;44595;-67
2021/06/11 03:10:11;;;;;;;;;;;;;;;;;;2098241;28;42510;-67
2021/06/11 03:11:14;;;;;;;;;;;;;;;;;;2097418;28;43711;-67
2021/06/11 03:12:16;;;;;;;;;;;;;;;;;;2081621;28;44205;-67
2021/06/11 03:13:18;;;;;;;;;;;;;;;;;;2097863;28;43734;-67
2021/06/11 03:14:20;;;;;;;;;;;;;;;;;;2097121;28;45364;-67
2021/06/11 03:15:23;;;;;;;;;;;;;;;;;;2098000;28;44125;-66
2021/06/11 03:16:26;;;;;;;;;;;;;;;;;;2089112;28;44281;-67
2021/06/11 03:17:33;;;;;;;;;;;;;;;;;;2081190;28;44637;-66
2021/06/11 03:18:45;;;;;;;;;;;;;;;;;;2081754;28;44580;-66
2021/06/11 03:19:50;;;;;;;;;;;;;;;;;;2097553;28;43050;-66
2021/06/11 03:20:52;;;;;;;;;;;;;;;;;;2097098;28;45544;-66
2021/06/11 03:21:58;;;;;;;;;;;;;;;;;;2081193;28;46510;-67
2021/06/11 03:23:02;;;;;;;;;;;;;;;;;;2081314;28;42280;-67
2021/06/11 03:24:04;;;;;;;;;;;;;;;;;;2089843;28;45487;-66
2021/06/11 03:25:15;;;;;;;;;;;;;;;;;;2097579;28;44084;-67
2021/06/11 03:26:20;;;;;;;;;;;;;;;;;;2081425;28;45624;-66
2021/06/11 03:27:26;;;;;;;;;;;;;;;;;;2081363;28;44835;-67
2021/06/11 03:28:30;;;;;;;;;;;;;;;;;;2072944;28;45385;-67
2021/06/11 03:29:34;;;;;;;;;;;;;;;;;;2081536;28;43946;-67
2021/06/11 03:30:37;;;;;;;;;;;;;;;;;;2081744;28;46395;-67
2021/06/11 03:31:41;;;;;;;;;;;;;;;;;;2097585;28;45278;-67
2021/06/11 03:32:45;;;;;;;;;;;;;;;;;;2096428;28;45443;-67
2021/06/11 03:33:49;;;;;;;;;;;;;;;;;;2081629;28;46440;-68
2021/06/11 03:34:52;;;;;;;;;;;;;;;;;;2081901;28;45155;-67
2021/06/11 03:35:55;;;;;;;;;;;;;;;;;;2081247;28;44490;-67
2021/06/11 03:36:58;;;;;;;;;;;;;;;;;;2097590;28;44109;-67
2021/06/11 03:38:01;;;;;;;;;;;;;;;;;;2088950;28;45651;-67
2021/06/11 03:39:05;;;;;;;;;;;;;;;;;;2080919;28;45412;-68
2021/06/11 03:40:10;;;;;;;;;;;;;;;;;;2081761;28;45625;-67
2021/06/11 03:41:12;;;;;;;;;;;;;;;;;;2081540;28;45418;-67
2021/06/11 03:42:13;;;;;;;;;;;;;;;;;;2081388;28;46019;-67
2021/06/11 03:43:15;;;;;;;;;;;;;;;;;;2081009;28;45370;-67
2021/06/11 03:44:17;;;;;;;;;;;;;;;;;;2073048;28;44531;-67
2021/06/11 03:45:20;;;;;;;;;;;;;;;;;;2072995;28;44952;-67
2021/06/11 03:46:22;;;;;;;;;;;;;;;;;;2089300;28;46221;-67
2021/06/11 03:47:24;;;;;;;;;;;;;;;;;;2096973;28;47250;-67
2021/06/11 03:48:27;;;;;;;;;;;;;;;;;;2080713;28;46551;-67
2021/06/11 03:49:31;;;;;;;;;;;;;;;;;;2081067;28;46849;-66
2021/06/11 03:50:33;;;;;;;;;;;;;;;;;;2081413;28;45805;-67
2021/06/11 03:51:38;;;;;;;;;;;;;;;;;;2097266;28;45890;-67
2021/06/11 03:52:40;;;;;;;;;;;;;;;;;;2088313;28;45864;-67
2021/06/11 03:53:42;;;;;;;;;;;;;;;;;;2089466;28;44897;-67
2021/06/11 03:54:45;;;;;;;;;;;;;;;;;;2088884;28;47002;-67
2021/06/11 03:55:48;;;;;;;;;;;;;;;;;;2081062;28;47240;-68
2021/06/11 03:56:51;;;;;;;;;;;;;;;;;;2080825;28;47063;-67
2021/06/11 03:57:57;;;;;;;;;;;;;;;;;;2073003;28;46965;-67
2021/06/11 03:58:59;;;;;;;;;;;;;;;;;;2073199;28;44228;-68
2021/06/11 04:00:02;;;;;;;;;;;;;;;;;;2073233;28;43326;-67
2021/06/11 04:01:05;;;;;;;;;;;;;;;;;;2081193;28;46019;-67
2021/06/11 04:02:06;;;;;;;;;;;;;;;;;;2081162;28;45181;-67
2021/06/11 04:03:08;;;;;;;;;;;;;;;;;;2081467;28;46942;-67
2021/06/11 04:04:12;;;;;;;;;;;;;;;;;;2080914;28;45803;-67
2021/06/11 04:05:14;;;;;;;;;;;;;;;;;;2080778;28;48536;-67
2021/06/11 04:06:38;;;;;;;;;;;;;;;;;;2081517;28;47123;-67
2021/06/11 04:07:57;;;;;;;;;;;;;;;;;;2081277;28;45273;-67
2021/06/11 04:09:05;;;;;;;;;;;;;;;;;;2081086;28;44170;-67
2021/06/11 04:10:17;;;;;;;;;;;;;;;;;;2073310;28;45751;-67
2021/06/11 04:11:21;;;;;;;;;;;;;;;;;;2074161;28;45377;-67
2021/06/11 04:12:26;;;;;;;;;;;;;;;;;;2080671;28;44311;-67
2021/06/11 04:13:38;;;;;;;;;;;;;;;;;;2081023;28;44408;-66
2021/06/11 04:14:41;;;;;;;;;;;;;;;;;;2097616;28;42218;-66
2021/06/11 04:15:42;;;;;;;;;;;;;;;;;;2096690;28;45438;-67
2021/06/11 04:16:49;;;;;;;;;;;;;;;;;;2081619;28;43192;-67
2021/06/11 04:17:52;;;;;;;;;;;;;;;;;;2081341;28;45720;-67
2021/06/11 04:18:55;;;;;;;;;;;;;;;;;;2080671;28;44652;-67
2021/06/11 04:19:57;;;;;;;;;;;;;;;;;;2089221;28;42884;-67
2021/06/11 04:20:59;;;;;;;;;;;;;;;;;;2096677;28;44486;-67
2021/06/11 04:22:02;;;;;;;;;;;;;;;;;;2080935;28;45727;-67
2021/06/11 04:23:05;;;;;;;;;;;;;;;;;;2080829;28;44328;-67
2021/06/11 04:24:11;;;;;;;;;;;;;;;;;;2080564;28;45434;-67
2021/06/11 04:25:13;;;;;;;;;;;;;;;;;;2097388;28;44344;-67
2021/06/11 04:26:15;;;;;;;;;;;;;;;;;;2088640;28;44192;-67
2021/06/11 04:27:19;;;;;;;;;;;;;;;;;;2081107;28;44009;-67
2021/06/11 04:28:22;;;;;;;;;;;;;;;;;;2080664;28;44350;-66
2021/06/11 04:29:23;;;;;;;;;;;;;;;;;;2097909;28;44214;-67
2021/06/11 04:30:25;;;;;;;;;;;;;;;;;;2096991;28;44038;-67
2021/06/11 04:31:29;;;;;;;;;;;;;;;;;;2080695;28;46502;-67
2021/06/11 04:32:31;;;;;;;;;;;;;;;;;;2080515;28;44000;-67
2021/06/11 04:33:32;;;;;;;;;;;;;;;;;;2080760;28;46577;-67
2021/06/11 04:34:34;;;;;;;;;;;;;;;;;;2072682;28;46685;-68
2021/06/11 04:35:41;;;;;;;;;;;;;;;;;;2072340;28;45433;-68
2021/06/11 04:36:43;;;;;;;;;;;;;;;;;;2089960;28;46671;-68
2021/06/11 04:37:45;;;;;;;;;;;;;;;;;;2089253;28;45258;-68
2021/06/11 04:38:57;;;;;;;;;;;;;;;;;;2080572;28;45348;-68
2021/06/11 04:39:58;;;;;;;;;;;;;;;;;;2081574;28;46707;-68
2021/06/11 04:41:00;;;;;;;;;;;;;;;;;;2097178;28;44175;-68
2021/06/11 04:42:01;;;;;;;;;;;;;;;;;;2089279;28;43967;-67
2021/06/11 04:43:03;;;;;;;;;;;;;;;;;;2088982;28;44953;-67
2021/06/11 04:44:05;;;;;;;;;;;;;;;;;;2097318;28;46575;-66
2021/06/11 04:45:07;;;;;;;;;;;;;;;;;;2081095;28;46567;-67
2021/06/11 04:46:08;;;;;;;;;;;;;;;;;;2081084;28;46495;-67
2021/06/11 04:47:10;;;;;;;;;;;;;;;;;;2073134;28;45464;-67
2021/06/11 04:48:11;;;;;;;;;;;;;;;;;;2080923;28;45741;-67
2021/06/11 04:49:13;;;;;;;;;;;;;;;;;;2097202;28;43478;-67
2021/06/11 04:50:14;;;;;;;;;;;;;;;;;;2097280;28;44154;-67
2021/06/11 04:51:15;;;;;;;;;;;;;;;;;;2082179;28;43946;-67
2021/06/11 04:52:17;;;;;;;;;;;;;;;;;;2080782;28;47068;-67
2021/06/11 04:53:18;;;;;;;;;;;;;;;;;;2081007;28;45931;-68
2021/06/11 04:54:20;;;;;;;;;;;;;;;;;;2097907;28;45885;-68
2021/06/11 04:55:21;;;;;;;;;;;;;;;;;;2097406;28;45874;-67
2021/06/11 04:56:23;;;;;;;;;;;;;;;;;;2081036;28;45997;-67
2021/06/11 04:57:24;;;;;;;;;;;;;;;;;;2088273;28;47004;-68
2021/06/11 04:58:28;;;;;;;;;;;;;;;;;;2096907;28;45845;-67
2021/06/11 04:59:29;;;;;;;;;;;;;;;;;;2080550;28;46090;-68
2021/06/11 05:00:31;;;;;;;;;;;;;;;;;;2080693;28;46108;-67
2021/06/11 05:01:32;;;;;;;;;;;;;;;;;;2080531;28;45764;-68
2021/06/11 05:02:33;;;;;;;;;;;;;;;;;;2080492;28;47125;-67
2021/06/11 05:03:35;;;;;;;;;;;;;;;;;;2096903;28;46225;-68
2021/06/11 05:04:37;;;;;;;;;;;;;;;;;;2088347;28;45903;-67
2021/06/11 05:05:38;;;;;;;;;;;;;;;;;;2089187;28;47236;-68
2021/06/11 05:06:39;;;;;;;;;;;;;;;;;;2097125;28;47112;-67
2021/06/11 05:07:41;;;;;;;;;;;;;;;;;;2096669;28;47062;-68
2021/06/11 05:08:43;;;;;;;;;;;;;;;;;;2096660;28;45962;-68
2021/06/11 05:09:44;;;;;;;;;;;;;;;;;;2088401;28;47098;-67
2021/06/11 05:10:46;;;;;;;;;;;;;;;;;;2081264;28;45793;-68
2021/06/11 05:11:47;;;;;;;;;;;;;;;;;;2096868;28;47090;-68
2021/06/11 05:12:49;;;;;;;;;;;;;;;;;;2096215;28;47217;-68
2021/06/11 05:13:50;;;;;;;;;;;;;;;;;;2080524;28;45781;-68
2021/06/11 05:14:52;;;;;;;;;;;;;;;;;;2088802;28;43390;-71
2021/06/11 05:15:53;;;;;;;;;;;;;;;;;;2096928;28;44064;-69
2021/06/11 05:16:59;;;;;;;;;;;;;;;;;;2097171;28;45481;-68
2021/06/11 05:18:07;;;;;;;;;;;;;;;;;;2096421;28;42673;-68
2021/06/11 05:19:08;;;;;;;;;;;;;;;;;;2087687;28;44331;-68
2021/06/11 05:20:10;;;;;;;;;;;;;;;;;;2080598;28;42584;-68
2021/06/11 05:21:12;;;;;;;;;;;;;;;;;;2081157;28;45533;-68
2021/06/11 05:22:16;;;;;;;;;;;;;;;;;;2097945;28;44447;-68
2021/06/11 05:23:19;;;;;;;;;;;;;;;;;;2097580;28;45644;-68
2021/06/11 05:24:20;;;;;;;;;;;;;;;;;;2098339;28;45451;-68
2021/06/11 05:25:21;;;;;;;;;;;;;;;;;;2090047;28;44321;-68
2021/06/11 05:26:23;;;;;;;;;;;;;;;;;;2081845;28;45793;-74
2021/06/11 05:27:24;;;;;;;;;;;;;;;;;;2098155;28;44460;-68
2021/06/11 05:28:26;;;;;;;;;;;;;;;;;;2098074;28;45602;-70
2021/06/11 05:29:27;;;;;;;;;;;;;;;;;;2082095;28;42568;-68
2021/06/11 05:30:29;;;;;;;;;;;;;;;;;;2073798;28;44273;-68
2021/06/11 05:31:30;;;;;;;;;;;;;;;;;;2073655;28;43047;-68
2021/06/11 05:32:32;;;;;;;;;;;;;;;;;;2089976;28;46119;-69
2021/06/11 05:33:33;;;;;;;;;;;;;;;;;;2089947;28;41124;-71
2021/06/11 05:34:35;;;;;;;;;;;;;;;;;;2089936;28;45384;-73
2021/06/11 05:35:39;;;;;;;;;;;;;;;;;;2089928;28;45367;-72
2021/06/11 05:36:41;;;;;;;;;;;;;;;;;;2081887;28;43800;-72
2021/06/11 05:37:43;;;;;;;;;;;;;;;;;;2098485;28;44848;-73
2021/06/11 05:38:45;;;;;;;;;;;;;;;;;;2098112;28;43580;-73
2021/06/11 05:39:47;;;;;;;;;;;;;;;;;;2081811;28;45740;-72
2021/06/11 05:40:49;;;;;;;;;;;;;;;;;;2074169;28;45610;-74
2021/06/11 05:41:50;;;;;;;;;;;;;;;;;;2073132;28;45615;-73
2021/06/11 05:42:52;;;;;;;;;;;;;;;;;;2073619;28;44120;-73
2021/06/11 05:43:53;;;;;;;;;;;;;;;;;;2073530;28;44106;-73
2021/06/11 05:44:55;;;;;;;;;;;;;;;;;;2090169;28;45376;-73
2021/06/11 05:45:56;;;;;;;;;;;;;;;;;;2090034;28;46609;-73
2021/06/11 05:46:58;;;;;;;;;;;;;;;;;;2082106;28;45768;-73
2021/06/11 05:48:00;;;;;;;;;;;;;;;;;;2098708;28;45574;-73
2021/06/11 05:49:01;;;;;;;;;;;;;;;;;;2097209;28;46680;-73
2021/06/11 05:50:04;;;;;;;;;;;;;;;;;;2098231;28;44765;-73
2021/06/11 05:51:05;;;;;;;;;;;;;;;;;;2098221;28;46258;-72
2021/06/11 05:52:07;;;;;;;;;;;;;;;;;;2089538;28;46025;-71
2021/06/11 05:53:09;;;;;;;;;;;;;;;;;;2081737;28;46640;-71
2021/06/11 05:54:10;;;;;;;;;;;;;;;;;;2073674;28;46736;-71
2021/06/11 05:55:13;;;;;;;;;;;;;;;;;;2079663;28;44193;-71
2021/06/11 05:56:15;;;;;;;;;;;;;;;;;;2078441;28;46788;-71
2021/06/11 05:57:16;;;;;;;;;;;;;;;;;;2081755;28;45360;-70
2021/06/11 05:58:18;;;;;;;;;;;;;;;;;;2089893;28;45916;-72
2021/06/11 05:59:19;;;;;;;;;;;;;;;;;;2089720;28;44673;-71
2021/06/11 06:00:21;;;;;;;;;;;;;;;;;;2081553;28;47145;-71
2021/06/11 06:01:23;;;;;;;;;;;;;;;;;;2073548;28;47488;-70
2021/06/11 06:02:24;;;;;;;;;;;;;;;;;;2089418;28;46104;-71
2021/06/11 06:03:25;;;;;;;;;;;;;;;;;;2097623;28;45786;-72
2021/06/11 06:04:27;;;;;;;;;;;;;;;;;;2081834;28;47131;-72
2021/06/11 06:05:28;;;;;;;;;;;;;;;;;;2082284;28;45908;-71
2021/06/11 06:06:30;;;;;;;;;;;;;;;;;;2081707;28;45918;-71
2021/06/11 06:07:33;;;;;;;;;;;;;;;;;;2073489;28;47002;-72
2021/06/11 06:08:35;;;;;;;;;;;;;;;;;;2081456;28;47030;-72
2021/06/11 06:09:36;;;;;;;;;;;;;;;;;;2073299;28;45928;-71
2021/06/11 06:10:38;;;;;;;;;;;;;;;;;;2073467;28;47466;-71
2021/06/11 06:11:39;;;;;;;;;;;;;;;;;;2072854;28;46994;-73
2021/06/11 06:12:41;;;;;;;;;;;;;;;;;;2081833;28;44597;-67
2021/06/11 06:13:42;;;;;;;;;;;;;;;;;;2080773;28;45925;-73
2021/06/11 06:14:46;;;;;;;;;;;;;;;;;;2081816;28;45333;-73
2021/06/11 06:15:48;;;;;;;;;;;;;;;;;;2097901;28;45757;-73
2021/06/11 06:16:50;;;;;;;;;;;;;;;;;;2105976;28;45774;-73
2021/06/11 06:17:51;;;;;;;;;;;;;;;;;;2089304;28;47682;-73
2021/06/11 06:18:53;;;;;;;;;;;;;;;;;;2088940;28;46911;-73
2021/06/11 06:19:55;;;;;;;;;;;;;;;;;;2089491;28;45021;-73
2021/06/11 06:21:11;;;;;;;;;;;;;;;;;;2074942;28;45441;-73
2021/06/11 06:22:13;;;;;;;;;;;;;;;;;;2079236;28;43241;-73
2021/06/11 06:23:14;;;;;;;;;;;;;;;;;;2081218;28;45935;-73
2021/06/11 06:24:16;;;;;;;;;;;;;;;;;;2081224;28;45494;-73
2021/06/11 06:25:17;;;;;;;;;;;;;;;;;;2089587;28;45655;-73
2021/06/11 06:26:18;;;;;;;;;;;;;;;;;;2080959;28;42791;-73
2021/06/11 06:27:20;;;;;;;;;;;;;;;;;;2072811;28;43251;-73
2021/06/11 06:28:21;;;;;;;;;;;;;;;;;;2073029;28;44676;-73
2021/06/11 06:29:23;;;;;;;;;;;;;;;;;;2073021;28;44345;-73
2021/06/11 06:30:24;;;;;;;;;;;;;;;;;;2073694;28;46625;-73
2021/06/11 06:31:26;;;;;;;;;;;;;;;;;;2081157;28;45157;-73
2021/06/11 06:32:29;;;;;;;;;;;;;;;;;;2089368;28;44338;-73
2021/06/11 06:33:31;;;;;;;;;;;;;;;;;;2096809;28;44616;-73
2021/06/11 06:34:32;;;;;;;;;;;;;;;;;;2081629;28;44207;-73
2021/06/11 06:35:33;;;;;;;;;;;;;;;;;;2073266;28;42561;-73
2021/06/11 06:36:35;;;;;;;;;;;;;;;;;;2089537;28;43175;-73
2021/06/11 06:37:36;;;;;;;;;;;;;;;;;;2097548;28;43611;-73
2021/06/11 06:38:38;;;;;;;;;;;;;;;;;;2080864;28;43107;-73
2021/06/11 06:39:39;;;;;;;;;;;;;;;;;;2072815;28;44192;-73
2021/06/11 06:40:42;;;;;;;;;;;;;;;;;;2072719;28;46368;-73
2021/06/11 06:41:44;;;;;;;;;;;;;;;;;;2081406;28;45293;-73
2021/06/11 06:42:45;;;;;;;;;;;;;;;;;;2081055;28;45356;-73
2021/06/11 06:43:48;;;;;;;;;;;;;;;;;;2072880;28;45564;-73
2021/06/11 06:44:49;;;;;;;;;;;;;;;;;;2081236;28;44259;-73
2021/06/11 06:45:51;;;;;;;;;;;;;;;;;;2072761;28;45608;-73
2021/06/11 06:46:52;;;;;;;;;;;;;;;;;;2073130;28;46017;-73
2021/06/11 06:47:54;;;;;;;;;;;;;;;;;;2073617;28;46738;-73
2021/06/11 06:48:56;;;;;;;;;;;;;;;;;;2080786;28;45485;-73
2021/06/11 06:49:58;;;;;;;;;;;;;;;;;;2072864;28;45520;-73
2021/06/11 06:50:59;;;;;;;;;;;;;;;;;;2072915;28;45412;-73
2021/06/11 06:52:01;;;;;;;;;;;;;;;;;;2080740;28;44841;-73
2021/06/11 06:53:04;;;;;;;;;;;;;;;;;;2081106;28;46582;-73
2021/06/11 06:54:06;;;;;;;;;;;;;;;;;;2081142;28;44551;-73
2021/06/11 06:55:08;;;;;;;;;;;;;;;;;;2089698;28;43758;-73
2021/06/11 06:56:09;;;;;;;;;;;;;;;;;;2088436;28;45485;-73
2021/06/11 06:57:11;;;;;;;;;;;;;;;;;;2081143;28;46872;-73
2021/06/11 06:58:12;;;;;;;;;;;;;;;;;;2080982;28;46956;-73
2021/06/11 06:59:14;;;;;;;;;;;;;;;;;;2073063;28;45516;-73
2021/06/11 07:00:15;;;;;;;;;;;;;;;;;;2081291;28;45325;-73
2021/06/11 07:01:17;;;;;;;;;;;;;;;;;;2097507;28;43800;-73
2021/06/11 07:02:19;;;;;;;;;;;;;;;;;;2088852;28;45398;-73
2021/06/11 07:03:20;;;;;;;;;;;;;;;;;;2089366;28;45784;-73
2021/06/11 07:04:21;;;;;;;;;;;;;;;;;;2089062;28;45791;-73
2021/06/11 07:05:23;;;;;;;;;;;;;;;;;;2072926;28;46303;-73
2021/06/11 07:06:24;;;;;;;;;;;;;;;;;;2080976;28;47033;-73
2021/06/11 07:07:26;;;;;;;;;;;;;;;;;;2097850;28;45263;-73
2021/06/11 07:08:31;;;;;;;;;;;;;;;;;;2088787;28;46918;-73